Berkeley Springs, West Virginia
Current Conditions -  °F | °C
As of 6:53 AM on Sunday 21 Dec 2014 (Local Time) from KMRB Reporting Station
Overcast Overcast  
Wind Chill: 32°   Ceiling: 6000
Heat Index: 32°   Visibility: 7mi
Dew Point: 22°   Wind: 0mph
Humidity: 66%   Direction: NA
Pressure: 30.32"   Gusts: NA
Location:  39.63°N, 78.23°W
Report Text: KMRB 211153Z AUTO 00000KT 7SM OVC060 00/M06 A3032 RMK AO2 SLP271 T00001056 10000 21006 53008 TSNO
Loading
Personal Weather Stations






























Interactive Weather Map New forecast layout! Learn more

10-Day Weather Forecast

Advertisements
Track Severe Weather on mobile